^^
Station Historical Data
 
Daily Summary for August 15, 2018 Units:  English    Metric   Both
« Previous Day
Next Day »
Daily Weekly Monthly Yearly Custom
  Current: High: Low: Average:
Temperature: 83.8 °F 84.6 °F 57.7 °F 70.5 °F
Dew Point: 69.9 °F 70.6 °F 57.2 °F 63.7 °F
Humidity: 63% 98% 61% 81%
Wind Speed: 4mph 6.9mph 0mph 1.4mph
Wind Gust: 2.7mph 3.6mph - -
WindESE - - SSE
Pressure: 29.93 in 30.02 in 29.93 in -
Precipitation: 0 in      
Historical Graphs
 
 
Tabular Data for August 15, 2018
Time Temperature Dew Point Pressure Wind Wind Speed Wind Gust Humidity Rainfall Rate (Hourly) solar Conditions
00:04 65.8 °F 64.7 °F 29.94 in Calm     96% 0 in 0.00 W/m2 RA
00:09 65.5 °F 64.3 °F 29.94 in Calm     96% 0 in 0.00 W/m2 RA
00:14 65.1 °F 64 °F 29.94 in Calm     96% 0 in 0.00 W/m2 BKN
00:19 64.9 °F 63.8 °F 29.94 in Calm     96% 0 in 0.00 W/m2 BKN
00:24 64.9 °F 63.8 °F 29.94 in Calm     96% 0 in 0.00 W/m2 BKN
00:29 64.6 °F 64 °F 29.94 in Calm     98% 0 in 0.00 W/m2 BKN
00:34 64.4 °F 63.8 °F 29.94 in Calm     98% 0 in 0.00 W/m2 BKN
00:39 63.9 °F 63.3 °F 29.94 in Calm     98% 0 in 0.00 W/m2 BKN
00:44 63.9 °F 63.3 °F 29.94 in Calm     98% 0 in 0.00 W/m2 BKN
00:49 63.7 °F 63.1 °F 29.94 in Calm     98% 0 in 0.00 W/m2 BKN
00:54 63.3 °F 62.7 °F 29.93 in Calm     98% 0 in 0.00 W/m2 BKN
00:59 63.1 °F 62.6 °F 29.93 in Calm     98% 0 in 0.00 W/m2 BKN
01:04 63 °F 62.4 °F 29.93 in Calm     98% 0 in 0.00 W/m2 CLR
01:09 62.8 °F 62.2 °F 29.93 in Calm     98% 0 in 0.00 W/m2 CLR
01:14 62.4 °F 61.8 °F 29.93 in Calm     98% 0 in 0.00 W/m2 CLR
01:19 62.4 °F 61.8 °F 29.93 in Calm     98% 0 in 0.00 W/m2 CLR
01:24 62.2 °F 61.7 °F 29.94 in Calm     98% 0 in 0.00 W/m2 CLR
01:29 62.1 °F 61.5 °F 29.94 in Calm     98% 0 in 0.00 W/m2 CLR
01:34 61.9 °F 61.3 °F 29.94 in Calm     98% 0 in 0.00 W/m2 CLR
01:39 61.9 °F 61.3 °F 29.94 in Calm     98% 0 in 0.00 W/m2 CLR
01:44 61.7 °F 61.1 °F 29.94 in Calm     98% 0 in 0.00 W/m2 CLR
01:49 61.5 °F 61 °F 29.94 in Calm     98% 0 in 0.00 W/m2 CLR
01:54 61.5 °F 61 °F 29.93 in Calm     98% 0 in 0.00 W/m2 CLR
01:59 61.3 °F 60.8 °F 29.94 in Calm     98% 0 in 0.00 W/m2 CLR
02:04 61.2 °F 60.6 °F 29.94 in Calm     98% 0 in 0.00 W/m2 CLR
02:09 60.6 °F 60.1 °F 29.94 in Calm     98% 0 in 0.00 W/m2 CLR
02:14 60.6 °F 60.1 °F 29.94 in Calm     98% 0 in 0.00 W/m2 CLR
02:19 60.3 °F 59.7 °F 29.95 in Calm     98% 0 in 0.00 W/m2 CLR
02:24 60.3 °F 59.7 °F 29.95 in Calm     98% 0 in 0.00 W/m2 CLR
02:29 60.3 °F 59.7 °F 29.95 in Calm     98% 0 in 0.00 W/m2 CLR
02:34 60.1 °F 59.5 °F 29.95 in Calm     98% 0 in 0.00 W/m2 CLR
02:39 60.1 °F 59.5 °F 29.95 in Calm     98% 0 in 0.00 W/m2 CLR
02:44 59.9 °F 59.3 °F 29.95 in Calm     98% 0 in 0.00 W/m2 CLR
02:49 59.9 °F 59.3 °F 29.95 in Calm     98% 0 in 0.00 W/m2 BKN
02:54 59.7 °F 59.2 °F 29.95 in Calm     98% 0 in 0.00 W/m2 BKN
02:59 59.4 °F 58.8 °F 29.96 in Calm     98% 0 in 0.00 W/m2 BKN
03:04 59.4 °F 58.8 °F 29.95 in Calm     98% 0 in 0.00 W/m2 OVC
03:09 59.4 °F 58.8 °F 29.96 in Calm     98% 0 in 0.00 W/m2 OVC
03:14 59.4 °F 58.8 °F 29.96 in Calm     98% 0 in 0.00 W/m2 OVC
03:19 59.4 °F 58.8 °F 29.96 in Calm     98% 0 in 0.00 W/m2 OVC
03:24 59.2 °F 58.6 °F 29.96 in Calm     98% 0 in 0.00 W/m2 OVC
03:29 59 °F 58.4 °F 29.96 in Calm     98% 0 in 0.00 W/m2 OVC
03:34 59 °F 58.4 °F 29.96 in Calm     98% 0 in 0.00 W/m2 OVC
03:39 58.8 °F 58.3 °F 29.96 in Calm     98% 0 in 0.00 W/m2 OVC
03:44 58.8 °F 58.3 °F 29.96 in Calm     98% 0 in 0.00 W/m2 OVC
03:49 58.5 °F 57.9 °F 29.96 in Calm     98% 0 in 0.00 W/m2 OVC
03:54 58.5 °F 57.9 °F 29.96 in Calm     98% 0 in 0.00 W/m2 OVC
03:59 58.5 °F 57.9 °F 29.96 in Calm     98% 0 in 0.00 W/m2 OVC
04:04 58.5 °F 57.9 °F 29.96 in Calm     98% 0 in 0.00 W/m2 OVC
04:09 58.5 °F 57.9 °F 29.96 in Calm     98% 0 in 0.00 W/m2 OVC
04:14 58.3 °F 57.7 °F 29.97 in Calm     98% 0 in 0.00 W/m2 OVC
04:19 58.3 °F 57.7 °F 29.96 in Calm     98% 0 in 0.00 W/m2 OVC
04:24 58.5 °F 57.9 °F 29.98 in Calm     98% 0 in 0.00 W/m2 OVC
04:29 58.5 °F 57.9 °F 29.97 in Calm     98% 0 in 0.00 W/m2 OVC
04:34 58.3 °F 57.7 °F 29.98 in Calm     98% 0 in 0.00 W/m2 OVC
04:39 57.9 °F 57.4 °F 29.98 in Calm     98% 0 in 0.00 W/m2 OVC
04:44 57.9 °F 57.4 °F 29.98 in Calm     98% 0 in 0.00 W/m2 OVC
04:49 57.9 °F 57.4 °F 29.98 in Calm     98% 0 in 0.00 W/m2 OVC
04:54 57.9 °F 57.4 °F 29.98 in Calm     98% 0 in 0.00 W/m2 OVC
04:59 57.7 °F 57.2 °F 29.98 in Calm     98% 0 in 0.00 W/m2 OVC
05:04 57.7 °F 57.2 °F 29.99 in Calm     98% 0 in 0.00 W/m2 OVC
05:09 57.7 °F 57.2 °F 29.98 in Calm     98% 0 in 0.00 W/m2 OVC
05:14 57.7 °F 57.2 °F 29.98 in Calm     98% 0 in 0.00 W/m2 OVC
05:19 57.7 °F 57.2 °F 29.99 in Calm     98% 0 in 0.00 W/m2 OVC
05:24 57.7 °F 57.2 °F 29.99 in Calm     98% 0 in 0.00 W/m2 OVC
05:29 57.7 °F 57.2 °F 29.99 in Calm     98% 0 in 0.00 W/m2 OVC
05:34 57.7 °F 57.2 °F 29.98 in Calm     98% 0 in 0.00 W/m2 OVC
05:39 57.7 °F 57.2 °F 29.99 in Calm     98% 0 in 0.00 W/m2 OVC
05:44 57.9 °F 57.4 °F 29.99 in Calm     98% 0 in 0.00 W/m2 OVC
05:49 58.5 °F 57.9 °F 29.99 in Calm     98% 0 in 89.60 W/m2 OVC
05:54 59 °F 58.4 °F 29.98 in Calm     98% 0 in 160.30 W/m2 OVC
05:59 59 °F 58.4 °F 29.99 in Calm     98% 0 in 186.50 W/m2 OVC
06:04 59 °F 58.4 °F 29.99 in Calm     98% 0 in 195.60 W/m2 OVC
06:09 59.4 °F 58.8 °F 29.99 in Calm     98% 0 in 219.90 W/m2 OVC
06:14 59.7 °F 59.2 °F 29.99 in Calm     98% 0 in 226.90 W/m2 OVC
06:19 59.7 °F 59.2 °F 29.99 in Calm     98% 0 in 235.00 W/m2 OVC
06:24 59.9 °F 59.3 °F 29.99 in Calm     98% 0 in 238.10 W/m2 OVC
06:29 59.9 °F 59.3 °F 29.99 in Calm     98% 0 in 249.20 W/m2 OVC
06:34 60.3 °F 59.7 °F 30.00 in Calm     98% 0 in 263.30 W/m2 OVC
06:39 60.3 °F 59.7 °F 29.99 in Calm     98% 0 in 269.40 W/m2 OVC
06:44 60.3 °F 59.7 °F 30.00 in Calm     98% 0 in 272.40 W/m2 OVC
06:49 60.6 °F 60.1 °F 30.00 in Calm     98% 0 in 279.50 W/m2 OVC
06:54 61 °F 60.4 °F 30.00 in Calm     98% 0 in 287.50 W/m2 OVC
06:59 61.2 °F 60.6 °F 30.00 in Calm     98% 0 in 294.60 W/m2 OVC
07:04 61.3 °F 60.8 °F 30.00 in Calm     98% 0 in 298.70 W/m2 OVC
07:09 61.9 °F 61.3 °F 30.00 in Calm     98% 0 in 304.70 W/m2 OVC
07:14 62.2 °F 61.7 °F 30.00 in Calm     98% 0 in 309.80 W/m2 OVC
07:19 62.4 °F 61.8 °F 30.00 in Calm     98% 0 in 312.80 W/m2 OVC
07:24 62.8 °F 62.2 °F 30.00 in Calm     98% 0 in 312.80 W/m2 OVC
07:29 63 °F 61.8 °F 30.01 in NNW 1.2 mph   96% 0 in 317.80 W/m2 OVC
07:34 63.3 °F 62.2 °F 30.00 in Calm     96% 0 in 322.90 W/m2 OVC
07:39 63.9 °F 62.4 °F 30.00 in Calm     95% 0 in 322.90 W/m2 OVC
07:44 64.4 °F 61.7 °F 30.01 in Calm     91% 0 in 327.90 W/m2 OVC
07:49 64.8 °F 62.7 °F 30.01 in Calm     93% 0 in 327.90 W/m2 SCT
07:54 65.5 °F 62.8 °F 30.00 in Calm     91% 0 in 347.10 W/m2 SCT
07:59 65.1 °F 62.1 °F 30.01 in Calm     90% 0 in 349.20 W/m2 SCT
08:04 65.1 °F 62.4 °F 30.01 in Calm     91% 0 in 354.20 W/m2 SCT
08:09 65.8 °F 62.2 °F 30.00 in SSE 1.2 mph 0.2 mph 88% 0 in 354.20 W/m2 SCT
08:14 66.6 °F 62.2 °F 30.02 in WSW 2.3 mph 0.9 mph 86% 0 in 360.30 W/m2 SCT
08:19 66.6 °F 62.2 °F 30.02 in Calm   0.9 mph 86% 0 in 376.40 W/m2 BKN
08:24 67.6 °F 62.3 °F 30.02 in ESE 2 mph 0.4 mph 83% 0 in 376.40 W/m2 BKN
08:29 67.8 °F 63.1 °F 30.02 in Calm     85% 0 in 389.60 W/m2 BKN
08:34 69.6 °F 63.2 °F 30.02 in Calm     80% 0 in 389.60 W/m2 BKN
08:39 70.2 °F 63.3 °F 30.02 in South 0.9 mph 0.2 mph 79% 0 in 356.00 W/m2 BKN
08:44 69.1 °F 62.6 °F 30.02 in SE 2.3 mph 0.7 mph 80% 0 in 530.90 W/m2 BKN
08:49 69.4 °F 63.4 °F 30.02 in ESE 2.3 mph 0.7 mph 81% 0 in 421.90 W/m2 BKN
08:54 70.2 °F 63 °F 30.02 in East 0.9 mph 0.2 mph 78% 0 in 442.10 W/m2 BKN
08:59 70 °F 63.2 °F 30.02 in East 2.3 mph 0.7 mph 79% 0 in 546.10 W/m2 BKN
09:04 69.8 °F 62.6 °F 30.02 in ESE 2.3 mph 0.9 mph 78% 0 in 598.60 W/m2 BKN
09:09 69.6 °F 63.2 °F 30.02 in Calm   0.2 mph 80% 0 in 598.60 W/m2 BKN
09:14 70 °F 62.8 °F 30.02 in NNW 0.9 mph 0.2 mph 78% 0 in 684.50 W/m2 BKN
09:19 70 °F 62.8 °F 30.02 in SE 3.5 mph 1.6 mph 78% 0 in 653.20 W/m2 BKN
09:24 70.5 °F 62.6 °F 30.02 in Calm     76% 0 in 742.00 W/m2 BKN
09:29 71.1 °F 62.7 °F 30.00 in ESE 1.2 mph 0.7 mph 75% 0 in 814.80 W/m2 BKN
09:34 72.3 °F 63.6 °F 30.00 in Calm   0.2 mph 74% 0 in 813.80 W/m2 BKN
09:39 73 °F 63.9 °F 30.01 in ESE 3.5 mph 0.9 mph 73% 0 in 848.10 W/m2 BKN
09:44 73.6 °F 63.6 °F 30.01 in East 4 mph 3.4 mph 71% 0 in 856.20 W/m2 BKN
09:49 73.4 °F 63.4 °F 30.01 in SSE 3.5 mph 3.1 mph 71% 0 in 856.20 W/m2 BKN
09:54 74.5 °F 64.5 °F 30.01 in Calm   0.4 mph 71% 0 in 860.20 W/m2 BKN
09:59 74.8 °F 64.4 °F 30.01 in ENE 2.3 mph 1.1 mph 70% 0 in 860.20 W/m2 BKN
10:04 75.4 °F 64.9 °F 30.00 in North 2.3 mph 1.3 mph 70% 0 in 866.30 W/m2 BKN
10:09 75.9 °F 65 °F 30.00 in NE 1.2 mph 0.7 mph 69% 0 in 868.30 W/m2 BKN
10:14 75 °F 64.6 °F 30.00 in South 2 mph 1.1 mph 70% 0 in 868.30 W/m2 BKN
10:19 76.3 °F 64.1 °F 30.00 in ESE 1.2 mph 0.7 mph 66% 0 in 870.30 W/m2 BKN
10:24 76.5 °F 65.1 °F 30.00 in East 1.2 mph 0.2 mph 68% 0 in 874.30 W/m2 BKN
10:29 77.2 °F 64.5 °F 30.00 in West 1.2 mph 0.4 mph 65% 0 in 875.40 W/m2 BKN
10:34 77.7 °F 65 °F 30.00 in South 1.2 mph 0.9 mph 65% 0 in 878.40 W/m2 BKN
10:39 77.4 °F 64.7 °F 30.00 in NNW 2.3 mph 1.3 mph 65% 0 in 880.40 W/m2 BKN
10:44 76.5 °F 64.3 °F 30.00 in SSE 2.3 mph 2.5 mph 66% 0 in 881.40 W/m2 BKN
10:49 77.5 °F 64.8 °F 30.00 in ESE 2.3 mph 1.1 mph 65% 0 in 883.40 W/m2 BKN
10:54 77.5 °F 63.9 °F 30.00 in NNE 3.5 mph 2.9 mph 63% 0 in 884.40 W/m2 BKN
10:59 77.5 °F 64.8 °F 30.00 in SSE 2.3 mph 1.6 mph 65% 0 in 885.50 W/m2 BKN
11:04 78.3 °F 66 °F 30.00 in ESE 1.2 mph 1.1 mph 66% 0 in 887.50 W/m2 OVC
11:09 78.1 °F 65.4 °F 30.00 in NW 2.3 mph 1.6 mph 65% 0 in 887.50 W/m2 OVC
11:14 78.4 °F 65.7 °F 30.00 in East 1.2 mph 1.1 mph 65% 0 in 888.50 W/m2 OVC
11:19 77.5 °F 64.8 °F 30.00 in South 3.5 mph 2.9 mph 65% 0 in 888.50 W/m2 OVC
11:24 78.1 °F 65.4 °F 30.00 in SE 1.2 mph 1.1 mph 65% 0 in 889.50 W/m2 OVC
11:29 78.8 °F 66 °F 30.00 in WSW 3.5 mph 2 mph 65% 0 in 890.50 W/m2 OVC
11:34 79.9 °F 66.2 °F 30.00 in NNW 2.3 mph 1.6 mph 63% 0 in 891.50 W/m2 OVC
11:39 79.3 °F 65.6 °F 30.00 in ESE 4.6 mph 2.5 mph 63% 0 in 891.50 W/m2 OVC
11:44 79.9 °F 66.2 °F 30.00 in East 3.5 mph 1.6 mph 63% 0 in 893.50 W/m2 OVC
11:49 79.3 °F 65.6 °F 30.00 in West 2.3 mph 1.6 mph 63% 0 in 894.60 W/m2 OVC
11:54 79.3 °F 66.5 °F 30.00 in South 2.3 mph 1.6 mph 65% 0 in 894.60 W/m2 OVC
11:59 79.5 °F 66.7 °F 29.99 in SSE 2.3 mph 1.1 mph 65% 0 in 893.50 W/m2 OVC
12:04 80.1 °F 67.2 °F 30.00 in SE 1.2 mph 1.3 mph 65% 0 in 894.60 W/m2 OVC
12:09 80.1 °F 67.2 °F 30.00 in NNE 4 mph 3.6 mph 65% 0 in 894.60 W/m2 OVC
12:14 79.3 °F 66.5 °F 30.00 in SE 0.9 mph 0.9 mph 65% 0 in 894.60 W/m2 OVC
12:19 80.2 °F 66.5 °F 29.99 in South 4 mph 2.9 mph 63% 0 in 892.50 W/m2 OVC
12:24 79.3 °F 65.6 °F 30.00 in South 2.3 mph 1.3 mph 63% 0 in 890.50 W/m2 OVC
12:29 80.4 °F 66.7 °F 29.99 in SSW 2.9 mph 0.9 mph 63% 0 in 1027.00 W/m2 OVC
12:34 80.8 °F 67 °F 29.99 in NNE 2.3 mph 2.2 mph 63% 0 in 890.50 W/m2 OVC
12:39 81.7 °F 66.9 °F 29.99 in ESE 3.5 mph 2.7 mph 61% 0 in 890.50 W/m2 OVC
12:44 81 °F 67.2 °F 30.00 in NNE 3.5 mph 2 mph 63% 0 in 891.50 W/m2 OVC
12:49 81.7 °F 67.9 °F 29.99 in ESE 4 mph 2.5 mph 63% 0 in 891.50 W/m2 OVC
12:54 81 °F 67.2 °F 29.99 in ESE 3.5 mph 2.7 mph 63% 0 in 890.50 W/m2 OVC
12:59 81.7 °F 66.9 °F 29.99 in ESE 3.5 mph 2.2 mph 61% 0 in 891.50 W/m2 OVC
13:04 81.7 °F 66.9 °F 29.99 in West 1.2 mph 2.2 mph 61% 0 in 891.50 W/m2 OVC
13:09 81.9 °F 67.1 °F 29.99 in WNW 4 mph 1.8 mph 61% 0 in 891.50 W/m2 OVC
13:10 81.9 °F 67.1 °F 29.99 in West 4 mph 2 mph 61% 0 in 891.50 W/m2 OVC
13:10 81.9 °F 67.1 °F 29.99 in West 4 mph 2 mph 61% 0 in 891.50 W/m2 OVC
13:12 81.9 °F 67.1 °F 29.99 in ESE 3.5 mph 1.6 mph 61% 0 in 891.50 W/m2 OVC
13:20 82 °F 67.3 °F 29.99 in East 2 mph 1.6 mph 61% 0 in 891.50 W/m2 OVC
13:28 82.8 °F 68.9 °F 29.99 in East 3.5 mph 2.2 mph 63% 0 in 890.50 W/m2 OVC
13:34 82.9 °F 69 °F 29.99 in SW 2 mph 2 mph 63% 0 in 890.50 W/m2 OVC
13:39 82.6 °F 68.7 °F 29.98 in NE 2.3 mph 1.6 mph 63% 0 in 881.40 W/m2 OVC
13:44 83.7 °F 68.8 °F 29.98 in South 2.3 mph 1.8 mph 61% 0 in 891.50 W/m2 OVC
13:49 83.1 °F 68.3 °F 29.98 in East 3.5 mph 2.9 mph 61% 0 in 891.50 W/m2 OVC
13:54 83.8 °F 69 °F 29.98 in SW 4 mph 2.2 mph 61% 0 in 891.50 W/m2 OVC
13:59 82.6 °F 68.7 °F 29.98 in SSE 4 mph 1.6 mph 63% 0 in 880.40 W/m2 OVC
14:04 82.8 °F 68.9 °F 29.98 in South 2.3 mph 2.2 mph 63% 0 in 890.50 W/m2 FEW
14:09 83.7 °F 68.8 °F 29.98 in East 2.9 mph 2.9 mph 61% 0 in 890.50 W/m2 FEW
14:14 83.5 °F 69.6 °F 29.98 in SSE 3.5 mph 2.9 mph 63% 0 in 890.50 W/m2 FEW
14:19 83.8 °F 69 °F 29.98 in SSE 2.9 mph 1.6 mph 61% 0 in 890.50 W/m2 FEW
14:24 83.8 °F 69.9 °F 29.98 in WNW 2.9 mph 2 mph 63% 0 in 890.50 W/m2 FEW
14:29 83.5 °F 69.6 °F 29.98 in SSW 4 mph 2.9 mph 63% 0 in 1023.00 W/m2 FEW
14:34 84.2 °F 70.2 °F 29.98 in ESE 4 mph 3.1 mph 63% 0 in 890.50 W/m2 FEW
14:39 82.8 °F 69.8 °F 29.98 in NE 3.5 mph 2.2 mph 65% 0 in 888.50 W/m2 FEW
14:44 83.1 °F 70.1 °F 29.98 in SSE 1.2 mph 2 mph 65% 0 in 888.50 W/m2 FEW
14:49 83.8 °F 69.9 °F 29.98 in West 6.9 mph 3.6 mph 63% 0 in 888.50 W/m2 FEW
14:54 83.1 °F 69.2 °F 29.97 in East 3.5 mph 2.9 mph 63% 0 in 888.50 W/m2 FEW
14:59 83.5 °F 70.5 °F 29.96 in ESE 2.9 mph 2.5 mph 65% 0 in 887.50 W/m2 FEW
15:04 83.7 °F 70.6 °F 29.97 in East 4.6 mph 2.9 mph 65% 0 in 887.50 W/m2 CLR
15:09 83.7 °F 70.6 °F 29.96 in East 2 mph 2 mph 65% 0 in 950.00 W/m2 CLR
15:14 84.6 °F 70.6 °F 29.96 in North 2.9 mph 2.7 mph 63% 0 in 884.40 W/m2 CLR
15:19 83.5 °F 69.6 °F 29.96 in NW 2.3 mph 1.6 mph 63% 0 in 885.50 W/m2 CLR
15:24 83.8 °F 69.9 °F 29.96 in East 3.5 mph 2.2 mph 63% 0 in 882.40 W/m2 CLR
15:29 83.1 °F 70.1 °F 29.96 in South 3.5 mph 1.8 mph 65% 0 in 883.40 W/m2 CLR
15:34 83.7 °F 69.7 °F 29.95 in SE 3.5 mph 2.5 mph 63% 0 in 882.40 W/m2 CLR
15:39 83.1 °F 70.1 °F 29.95 in SSE 3.5 mph 2 mph 65% 0 in 881.40 W/m2 CLR
15:44 83.8 °F 69.9 °F 29.95 in West 3.5 mph 1.8 mph 63% 0 in 880.40 W/m2 CLR
15:49 83.5 °F 69.6 °F 29.95 in South 1.2 mph 0.4 mph 63% 0 in 879.40 W/m2 CLR
15:54 83.1 °F 70.1 °F 29.94 in SW 2.3 mph 0.9 mph 65% 0 in 880.40 W/m2 CLR
15:59 83.7 °F 69.7 °F 29.95 in ESE 3.5 mph 2.9 mph 63% 0 in 879.40 W/m2 CLR
16:04 83.7 °F 69.7 °F 29.95 in East 3.5 mph 2.9 mph 63% 0 in 874.30 W/m2 BKN
16:09 83.8 °F 69.9 °F 29.95 in East 3.5 mph 2.7 mph 63% 0 in 874.30 W/m2 BKN
16:14 82.8 °F 69.8 °F 29.95 in SSE 3.5 mph 2.7 mph 65% 0 in 879.40 W/m2 BKN
16:19 82.9 °F 70 °F 29.95 in SE 3.5 mph 2.9 mph 65% 0 in 869.30 W/m2 BKN
16:24 83.8 °F 69.9 °F 29.94 in ESE 4 mph 2 mph 63% 0 in 873.30 W/m2 BKN
16:29 83.7 °F 69.7 °F 29.95 in NE 3.5 mph 2.2 mph 63% 0 in 873.30 W/m2 BKN
16:34 83.5 °F 69.6 °F 29.94 in ESE 4 mph 1.6 mph 63% 0 in 709.00 W/m2 BKN
16:39 83.5 °F 70.5 °F 29.94 in SW 3.5 mph 2.7 mph 65% 0 in 867.30 W/m2 BKN
16:44 83.7 °F 69.7 °F 29.94 in SW 1.2 mph 0.7 mph 63% 0 in 866.30 W/m2 BKN
16:49 83.8 °F 69.9 °F 29.94 in SSW 2.3 mph 1.3 mph 63% 0 in 862.20 W/m2 BKN
16:54 83.5 °F 69.6 °F 29.94 in West 3.5 mph 1.6 mph 63% 0 in 859.20 W/m2 BKN
16:59 83.8 °F 69.9 °F 29.94 in NW 3.5 mph 1.8 mph 63% 0 in 850.10 W/m2 BKN
17:04 83.8 °F 69.9 °F 29.94 in SSW 2.3 mph 1.3 mph 63% 0 in 841.00 W/m2 SCT
17:09 83.8 °F 69.9 °F 29.93 in ESE 4 mph 2.7 mph 63% 0 in 848.10 W/m2 SCT
Juneau County Weather
Compliments of Weather Underground - 5.25 mb